Orbital elements of SL-3 R/B
| Launched | 23 July 1983 |
| Flight ended | – |
| Launch site | Tyuratam Missile and Space Center, Kazakhstan (Also known as Baikonur Cosmodrome) |
| Owner | Commonwealth of Independent States (former USSR) |
| NORAD ID | 14208 |
| Date fetched |
Epoch osculation |
Inc. [°] |
Ecc. | RA asc node [hr] |
Arg Peri. [°] |
Mean anom [°] |
Mean motion [rev/day] |
Abs. mag |
| Date fetched |
Epoch osculation |
Inc. [°] |
Ecc. | RA asc node [hr] |
Arg Peri. [°] |
Mean anom [°] |
Mean motion [rev/day] |
Abs. mag |
| 2026 May 08 17:57 | 2026 May 08 04:12:58 | 97.6124 | 0.00214 | 9.0046 | 22.1872 | 338.0295 | 15.39749 | 4.743 |
| 2026 May 07 17:58 | 2026 May 07 06:22:48 | 97.6123 | 0.00216 | 8.9415 | 25.3169 | 338.0295 | 15.39749 | 4.743 |
| 2026 May 06 17:57 | 2026 May 06 11:39:48 | 97.6122 | 0.00217 | 8.8874 | 28.0710 | 338.0295 | 15.39749 | 4.743 |
| 2026 May 05 17:57 | 2026 May 05 12:16:02 | 97.6121 | 0.00218 | 8.8198 | 31.4929 | 338.0295 | 15.39749 | 4.743 |
| 2026 May 04 17:57 | 2026 May 04 11:18:40 | 97.6120 | 0.00219 | 8.7478 | 34.9836 | 338.0295 | 15.39749 | 4.743 |
| 2026 May 03 17:57 | 2026 May 03 11:54:51 | 97.6118 | 0.00220 | 8.6802 | 38.3026 | 338.0295 | 15.39749 | 4.743 |
| 2026 May 02 17:57 | 2026 May 02 10:57:26 | 97.6117 | 0.00222 | 8.6081 | 41.8249 | 338.0295 | 15.39749 | 4.743 |
| 2026 May 01 17:56 | 2026 May 01 11:33:35 | 97.6116 | 0.00223 | 8.5405 | 45.1285 | 338.0295 | 15.39749 | 4.743 |
| 2026 Apr 30 17:56 | 2026 Apr 30 12:09:42 | 97.6118 | 0.00224 | 8.4730 | 48.4457 | 338.0295 | 15.39749 | 4.743 |
| 2026 Apr 29 17:57 | 2026 Apr 29 12:45:48 | 97.6120 | 0.00225 | 8.4054 | 51.6438 | 338.0295 | 15.39749 | 4.743 |
| 2026 Apr 28 17:56 | 2026 Apr 28 11:48:17 | 97.6122 | 0.00226 | 8.3333 | 55.1047 | 338.0295 | 15.39749 | 4.743 |
| 2026 Apr 27 17:58 | 2026 Apr 27 10:50:45 | 97.6125 | 0.00227 | 8.2613 | 58.5900 | 338.0295 | 15.39749 | 4.743 |
| 2026 Apr 26 17:58 | 2026 Apr 25 22:57:59 | 97.6130 | 0.00228 | 8.1577 | 63.6209 | 338.0295 | 15.39749 | 4.743 |
| 2026 Apr 25 17:58 | 2026 Apr 25 12:02:47 | 97.6131 | 0.00229 | 8.1261 | 65.0876 | 338.0295 | 15.39749 | 4.743 |
| 2026 Apr 24 17:59 | 2026 Apr 24 12:38:47 | 97.6133 | 0.00230 | 8.0586 | 68.2535 | 338.0295 | 15.39749 | 4.743 |
| 2026 Apr 23 17:57 | 2026 Apr 23 05:26:44 | 97.6135 | 0.00230 | 7.9685 | 72.5929 | 338.0295 | 15.39749 | 4.743 |
| 2026 Apr 22 17:57 | 2026 Apr 22 06:02:41 | 97.6135 | 0.00231 | 7.9010 | 75.7624 | 338.0295 | 15.39749 | 4.743 |
| 2026 Apr 21 17:57 | 2026 Apr 21 11:19:26 | 97.6133 | 0.00231 | 7.8469 | 78.3219 | 338.0295 | 15.39749 | 4.743 |
| 2026 Apr 20 17:57 | 2026 Apr 20 11:55:22 | 97.6131 | 0.00232 | 7.7793 | 81.5150 | 338.0295 | 15.39749 | 4.743 |
| 2026 Apr 19 17:58 | 2026 Apr 19 10:57:40 | 97.6129 | 0.00232 | 7.7073 | 84.9225 | 338.0295 | 15.39749 | 4.743 |
| 2026 Apr 18 17:56 | 2026 Apr 18 05:19:07 | 97.6127 | 0.00232 | 7.6217 | 88.9629 | 338.0295 | 15.39749 | 4.743 |
| 2026 Apr 16 17:57 | 2026 Apr 16 06:30:50 | 97.6128 | 0.00232 | 7.4866 | 95.2704 | 338.0295 | 15.39749 | 4.743 |
| 2026 Apr 14 17:57 | 2026 Apr 14 12:23:21 | 97.6130 | 0.00232 | 7.3650 | 101.0629 | 338.0295 | 15.39749 | 4.743 |
| 2026 Apr 13 17:57 | 2026 Apr 13 06:44:43 | 97.6133 | 0.00232 | 7.2794 | 105.1365 | 338.0295 | 15.39749 | 4.743 |
| 2026 Apr 12 17:57 | 2026 Apr 12 12:01:22 | 97.6137 | 0.00232 | 7.2254 | 107.6644 | 338.0295 | 15.39749 | 4.743 |
| 2026 Apr 11 17:57 | 2026 Apr 11 11:03:33 | 97.6139 | 0.00232 | 7.1533 | 111.0884 | 338.0295 | 15.39749 | 4.743 |